Lowell, Indiana
Current Conditions -  °F | °C
As of 5:55 PM on Monday 22 Dec 2014 (Local Time) from KIGQ Reporting Station
Light Rain Light Rain  
Wind Chill: 32°   Ceiling: 600
Heat Index: 40°   Visibility: 4mi
Dew Point: 39°   Wind: 15mph
Humidity: 96%   Direction: 130°SE
Pressure: 29.69"   Gusts: 20mph
Location:  41.29°N, 87.42°W
Report Text: KIGQ 222355Z AUTO 13013G17KT 4SM -RA OVC006 04/04 A2969 RMK AO2 P0002 60009 T00430037 10043 20021
Loading
Personal Weather Stations






























Interactive Weather Map New forecast layout! Learn more

10-Day Weather Forecast

Advertisements
Track Severe Weather on mobile